sensor_id;sensor_type;location;lat;lon;timestamp;P1;durP1;ratioP1;P2;durP2;ratioP2
17365;SDS011;8800;50.118;9.900;2023-07-20T00:02:18;8.20;;;3.63;;
17365;SDS011;8800;50.118;9.900;2023-07-20T00:04:47;11.90;;;3.80;;
17365;SDS011;8800;50.118;9.900;2023-07-20T00:07:13;9.57;;;3.65;;
17365;SDS011;8800;50.118;9.900;2023-07-20T00:09:40;9.30;;;3.60;;
17365;SDS011;8800;50.118;9.900;2023-07-20T00:12:07;6.65;;;3.20;;
17365;SDS011;8800;50.118;9.900;2023-07-20T00:14:33;7.07;;;3.85;;
17365;SDS011;8800;50.118;9.900;2023-07-20T00:17:00;6.80;;;3.47;;
17365;SDS011;8800;50.118;9.900;2023-07-20T00:19:27;7.32;;;3.38;;
17365;SDS011;8800;50.118;9.900;2023-07-20T00:21:56;9.13;;;3.42;;
17365;SDS011;8800;50.118;9.900;2023-07-20T00:24:23;7.95;;;3.63;;
17365;SDS011;8800;50.118;9.900;2023-07-20T00:26:50;7.43;;;3.53;;
17365;SDS011;8800;50.118;9.900;2023-07-20T00:29:18;7.57;;;3.55;;
17365;SDS011;8800;50.118;9.900;2023-07-20T00:31:44;5.10;;;3.15;;
17365;SDS011;8800;50.118;9.900;2023-07-20T00:34:11;7.68;;;3.50;;
17365;SDS011;8800;50.118;9.900;2023-07-20T00:36:38;6.38;;;3.47;;
17365;SDS011;8800;50.118;9.900;2023-07-20T00:39:06;7.82;;;3.00;;
17365;SDS011;8800;50.118;9.900;2023-07-20T00:41:33;12.40;;;3.40;;
17365;SDS011;8800;50.118;9.900;2023-07-20T00:43:59;7.90;;;3.33;;
17365;SDS011;8800;50.118;9.900;2023-07-20T00:46:26;7.07;;;2.95;;
17365;SDS011;8800;50.118;9.900;2023-07-20T00:48:53;8.00;;;3.40;;
17365;SDS011;8800;50.118;9.900;2023-07-20T00:51:20;7.53;;;3.50;;
17365;SDS011;8800;50.118;9.900;2023-07-20T00:53:47;6.80;;;3.22;;
17365;SDS011;8800;50.118;9.900;2023-07-20T00:56:16;6.53;;;3.40;;
17365;SDS011;8800;50.118;9.900;2023-07-20T00:58:43;9.63;;;3.63;;
17365;SDS011;8800;50.118;9.900;2023-07-20T01:01:10;7.35;;;3.25;;
17365;SDS011;8800;50.118;9.900;2023-07-20T01:03:37;10.60;;;3.30;;
17365;SDS011;8800;50.118;9.900;2023-07-20T01:06:07;10.18;;;3.50;;
17365;SDS011;8800;50.118;9.900;2023-07-20T01:08:43;6.93;;;3.10;;
17365;SDS011;8800;50.118;9.900;2023-07-20T01:11:12;4.88;;;3.30;;
17365;SDS011;8800;50.118;9.900;2023-07-20T01:13:43;11.45;;;3.35;;
17365;SDS011;8800;50.118;9.900;2023-07-20T01:16:10;7.70;;;3.42;;
17365;SDS011;8800;50.118;9.900;2023-07-20T01:18:36;6.85;;;3.30;;
17365;SDS011;8800;50.118;9.900;2023-07-20T01:21:03;8.18;;;2.97;;
17365;SDS011;8800;50.118;9.900;2023-07-20T01:26:22;9.30;;;3.78;;
17365;SDS011;8800;50.118;9.900;2023-07-20T01:29:10;5.75;;;3.15;;
17365;SDS011;8800;50.118;9.900;2023-07-20T01:31:41;8.25;;;3.63;;
17365;SDS011;8800;50.118;9.900;2023-07-20T01:34:09;6.68;;;3.70;;
17365;SDS011;8800;50.118;9.900;2023-07-20T01:36:39;7.78;;;4.13;;
17365;SDS011;8800;50.118;9.900;2023-07-20T01:39:06;6.30;;;3.35;;
17365;SDS011;8800;50.118;9.900;2023-07-20T01:41:33;5.63;;;3.30;;
17365;SDS011;8800;50.118;9.900;2023-07-20T01:44:00;8.90;;;3.30;;
17365;SDS011;8800;50.118;9.900;2023-07-20T01:46:27;8.38;;;3.30;;
17365;SDS011;8800;50.118;9.900;2023-07-20T01:48:55;7.43;;;3.35;;
17365;SDS011;8800;50.118;9.900;2023-07-20T01:51:22;7.88;;;3.63;;
17365;SDS011;8800;50.118;9.900;2023-07-20T01:53:49;6.28;;;3.45;;
17365;SDS011;8800;50.118;9.900;2023-07-20T01:56:16;7.72;;;3.47;;
17365;SDS011;8800;50.118;9.900;2023-07-20T01:58:42;5.30;;;3.30;;
17365;SDS011;8800;50.118;9.900;2023-07-20T02:01:09;8.63;;;3.70;;
17365;SDS011;8800;50.118;9.900;2023-07-20T02:03:36;10.65;;;3.80;;
17365;SDS011;8800;50.118;9.900;2023-07-20T02:06:04;8.63;;;3.40;;
17365;SDS011;8800;50.118;9.900;2023-07-20T02:08:31;5.05;;;3.20;;
17365;SDS011;8800;50.118;9.900;2023-07-20T02:10:57;6.70;;;3.45;;
17365;SDS011;8800;50.118;9.900;2023-07-20T02:13:24;10.82;;;3.60;;
17365;SDS011;8800;50.118;9.900;2023-07-20T02:15:51;6.97;;;3.60;;
17365;SDS011;8800;50.118;9.900;2023-07-20T02:18:17;11.00;;;3.35;;
17365;SDS011;8800;50.118;9.900;2023-07-20T02:20:44;6.75;;;3.15;;
17365;SDS011;8800;50.118;9.900;2023-07-20T02:23:12;6.10;;;3.30;;
17365;SDS011;8800;50.118;9.900;2023-07-20T02:25:39;4.70;;;3.05;;
17365;SDS011;8800;50.118;9.900;2023-07-20T02:28:07;7.25;;;2.92;;
17365;SDS011;8800;50.118;9.900;2023-07-20T02:30:33;6.30;;;3.10;;
17365;SDS011;8800;50.118;9.900;2023-07-20T02:33:00;4.85;;;3.00;;
17365;SDS011;8800;50.118;9.900;2023-07-20T02:35:26;5.05;;;3.20;;
17365;SDS011;8800;50.118;9.900;2023-07-20T02:37:53;10.70;;;3.10;;
17365;SDS011;8800;50.118;9.900;2023-07-20T02:40:21;8.40;;;3.20;;
17365;SDS011;8800;50.118;9.900;2023-07-20T02:42:48;3.72;;;2.70;;
17365;SDS011;8800;50.118;9.900;2023-07-20T02:45:15;7.03;;;3.53;;
17365;SDS011;8800;50.118;9.900;2023-07-20T02:47:41;7.68;;;3.47;;
17365;SDS011;8800;50.118;9.900;2023-07-20T02:50:08;7.53;;;3.40;;
17365;SDS011;8800;50.118;9.900;2023-07-20T02:52:35;7.18;;;3.60;;
17365;SDS011;8800;50.118;9.900;2023-07-20T02:55:01;5.13;;;3.45;;
17365;SDS011;8800;50.118;9.900;2023-07-20T02:57:29;5.30;;;3.05;;
17365;SDS011;8800;50.118;9.900;2023-07-20T02:59:55;6.75;;;3.25;;
17365;SDS011;8800;50.118;9.900;2023-07-20T03:02:22;9.70;;;3.35;;
17365;SDS011;8800;50.118;9.900;2023-07-20T03:04:48;6.40;;;3.45;;
17365;SDS011;8800;50.118;9.900;2023-07-20T03:07:15;7.03;;;2.92;;
17365;SDS011;8800;50.118;9.900;2023-07-20T03:09:42;6.20;;;3.10;;
17365;SDS011;8800;50.118;9.900;2023-07-20T03:12:08;6.63;;;3.20;;
17365;SDS011;8800;50.118;9.900;2023-07-20T03:14:36;5.32;;;3.10;;
17365;SDS011;8800;50.118;9.900;2023-07-20T03:17:03;3.95;;;2.88;;
17365;SDS011;8800;50.118;9.900;2023-07-20T03:19:29;5.22;;;3.15;;
17365;SDS011;8800;50.118;9.900;2023-07-20T03:21:56;10.90;;;3.20;;
17365;SDS011;8800;50.118;9.900;2023-07-20T03:24:22;5.63;;;3.00;;
17365;SDS011;8800;50.118;9.900;2023-07-20T03:26:50;6.63;;;3.17;;
17365;SDS011;8800;50.118;9.900;2023-07-20T03:29:16;5.30;;;3.10;;
17365;SDS011;8800;50.118;9.900;2023-07-20T03:31:44;7.43;;;3.05;;
17365;SDS011;8800;50.118;9.900;2023-07-20T03:34:10;5.35;;;3.10;;
17365;SDS011;8800;50.118;9.900;2023-07-20T03:36:37;5.28;;;3.20;;
17365;SDS011;8800;50.118;9.900;2023-07-20T03:39:03;6.82;;;3.03;;
17365;SDS011;8800;50.118;9.900;2023-07-20T03:41:30;7.38;;;2.85;;
17365;SDS011;8800;50.118;9.900;2023-07-20T03:43:57;5.57;;;3.35;;
17365;SDS011;8800;50.118;9.900;2023-07-20T03:46:24;7.07;;;3.50;;
17365;SDS011;8800;50.118;9.900;2023-07-20T03:48:52;7.57;;;3.50;;
17365;SDS011;8800;50.118;9.900;2023-07-20T03:51:19;7.43;;;3.17;;
17365;SDS011;8800;50.118;9.900;2023-07-20T03:53:45;5.57;;;3.03;;
17365;SDS011;8800;50.118;9.900;2023-07-20T03:56:12;7.82;;;3.35;;
17365;SDS011;8800;50.118;9.900;2023-07-20T03:58:38;8.90;;;3.50;;
17365;SDS011;8800;50.118;9.900;2023-07-20T04:01:05;7.15;;;3.25;;
17365;SDS011;8800;50.118;9.900;2023-07-20T04:03:32;6.05;;;3.25;;
17365;SDS011;8800;50.118;9.900;2023-07-20T04:06:00;9.52;;;3.53;;
17365;SDS011;8800;50.118;9.900;2023-07-20T04:08:26;7.60;;;3.22;;
17365;SDS011;8800;50.118;9.900;2023-07-20T04:10:53;5.63;;;3.33;;
17365;SDS011;8800;50.118;9.900;2023-07-20T04:13:20;7.07;;;3.10;;
17365;SDS011;8800;50.118;9.900;2023-07-20T04:15:47;8.50;;;3.20;;
17365;SDS011;8800;50.118;9.900;2023-07-20T04:18:13;6.43;;;3.63;;
17365;SDS011;8800;50.118;9.900;2023-07-20T04:20:40;7.05;;;3.17;;
17365;SDS011;8800;50.118;9.900;2023-07-20T04:23:08;8.52;;;3.40;;
17365;SDS011;8800;50.118;9.900;2023-07-20T04:25:35;8.30;;;3.50;;
17365;SDS011;8800;50.118;9.900;2023-07-20T04:28:05;6.72;;;3.40;;
17365;SDS011;8800;50.118;9.900;2023-07-20T04:30:34;5.80;;;3.53;;
17365;SDS011;8800;50.118;9.900;2023-07-20T04:33:01;6.78;;;3.67;;
17365;SDS011;8800;50.118;9.900;2023-07-20T04:38:13;7.85;;;3.28;;
17365;SDS011;8800;50.118;9.900;2023-07-20T04:40:40;6.78;;;3.40;;
17365;SDS011;8800;50.118;9.900;2023-07-20T04:43:07;7.55;;;3.33;;
17365;SDS011;8800;50.118;9.900;2023-07-20T04:45:35;8.60;;;3.50;;
17365;SDS011;8800;50.118;9.900;2023-07-20T04:48:04;6.95;;;3.08;;
17365;SDS011;8800;50.118;9.900;2023-07-20T04:50:31;5.90;;;3.08;;
17365;SDS011;8800;50.118;9.900;2023-07-20T04:52:58;8.02;;;3.22;;
17365;SDS011;8800;50.118;9.900;2023-07-20T04:55:26;5.80;;;2.92;;
17365;SDS011;8800;50.118;9.900;2023-07-20T04:57:53;8.05;;;3.08;;
17365;SDS011;8800;50.118;9.900;2023-07-20T05:00:21;6.95;;;3.42;;
17365;SDS011;8800;50.118;9.900;2023-07-20T05:02:47;6.63;;;3.25;;
17365;SDS011;8800;50.118;9.900;2023-07-20T05:05:14;7.75;;;3.60;;
17365;SDS011;8800;50.118;9.900;2023-07-20T05:07:40;5.82;;;3.42;;
17365;SDS011;8800;50.118;9.900;2023-07-20T05:10:07;8.07;;;3.15;;
17365;SDS011;8800;50.118;9.900;2023-07-20T05:12:36;6.28;;;3.72;;
17365;SDS011;8800;50.118;9.900;2023-07-20T05:15:03;7.47;;;3.03;;
17365;SDS011;8800;50.118;9.900;2023-07-20T05:17:30;6.25;;;3.30;;
17365;SDS011;8800;50.118;9.900;2023-07-20T05:19:56;4.18;;;3.03;;
17365;SDS011;8800;50.118;9.900;2023-07-20T05:22:23;4.72;;;2.92;;
17365;SDS011;8800;50.118;9.900;2023-07-20T05:24:51;8.70;;;3.15;;
17365;SDS011;8800;50.118;9.900;2023-07-20T05:27:17;5.47;;;3.20;;
17365;SDS011;8800;50.118;9.900;2023-07-20T05:29:48;6.50;;;3.10;;
17365;SDS011;8800;50.118;9.900;2023-07-20T05:32:15;5.53;;;3.08;;
17365;SDS011;8800;50.118;9.900;2023-07-20T05:34:42;8.35;;;3.05;;
17365;SDS011;8800;50.118;9.900;2023-07-20T05:37:11;5.35;;;2.97;;
17365;SDS011;8800;50.118;9.900;2023-07-20T05:39:38;7.88;;;3.45;;
17365;SDS011;8800;50.118;9.900;2023-07-20T05:42:05;7.03;;;3.13;;
17365;SDS011;8800;50.118;9.900;2023-07-20T05:44:32;6.53;;;3.70;;
17365;SDS011;8800;50.118;9.900;2023-07-20T05:47:00;9.95;;;4.30;;
17365;SDS011;8800;50.118;9.900;2023-07-20T05:49:28;5.43;;;3.58;;
17365;SDS011;8800;50.118;9.900;2023-07-20T05:51:54;8.50;;;3.30;;
17365;SDS011;8800;50.118;9.900;2023-07-20T05:54:21;4.35;;;3.33;;
17365;SDS011;8800;50.118;9.900;2023-07-20T05:56:48;5.70;;;3.45;;
17365;SDS011;8800;50.118;9.900;2023-07-20T05:59:15;7.53;;;3.10;;
17365;SDS011;8800;50.118;9.900;2023-07-20T06:01:42;4.70;;;3.03;;
17365;SDS011;8800;50.118;9.900;2023-07-20T06:04:11;9.48;;;3.20;;
17365;SDS011;8800;50.118;9.900;2023-07-20T06:06:38;3.65;;;2.95;;
17365;SDS011;8800;50.118;9.900;2023-07-20T06:09:04;6.22;;;2.90;;
17365;SDS011;8800;50.118;9.900;2023-07-20T06:11:34;4.95;;;3.03;;
17365;SDS011;8800;50.118;9.900;2023-07-20T06:14:01;3.97;;;2.85;;
17365;SDS011;8800;50.118;9.900;2023-07-20T06:16:28;5.60;;;3.55;;
17365;SDS011;8800;50.118;9.900;2023-07-20T06:18:54;5.18;;;3.22;;
17365;SDS011;8800;50.118;9.900;2023-07-20T06:21:23;5.07;;;2.75;;
17365;SDS011;8800;50.118;9.900;2023-07-20T06:23:49;7.18;;;3.03;;
17365;SDS011;8800;50.118;9.900;2023-07-20T06:26:16;3.92;;;3.00;;
17365;SDS011;8800;50.118;9.900;2023-07-20T06:28:43;7.93;;;3.10;;
17365;SDS011;8800;50.118;9.900;2023-07-20T06:31:09;4.78;;;3.17;;
17365;SDS011;8800;50.118;9.900;2023-07-20T06:33:37;8.32;;;3.13;;
17365;SDS011;8800;50.118;9.900;2023-07-20T06:36:04;8.32;;;3.42;;
17365;SDS011;8800;50.118;9.900;2023-07-20T06:38:31;5.15;;;3.05;;
17365;SDS011;8800;50.118;9.900;2023-07-20T06:40:58;11.07;;;3.30;;
17365;SDS011;8800;50.118;9.900;2023-07-20T06:43:25;4.78;;;2.72;;
17365;SDS011;8800;50.118;9.900;2023-07-20T06:45:52;9.35;;;3.10;;
17365;SDS011;8800;50.118;9.900;2023-07-20T06:48:19;6.00;;;3.00;;
17365;SDS011;8800;50.118;9.900;2023-07-20T06:50:46;5.18;;;2.60;;
17365;SDS011;8800;50.118;9.900;2023-07-20T06:53:12;4.20;;;2.53;;
17365;SDS011;8800;50.118;9.900;2023-07-20T06:55:41;8.10;;;2.90;;
17365;SDS011;8800;50.118;9.900;2023-07-20T06:58:07;5.70;;;2.60;;
17365;SDS011;8800;50.118;9.900;2023-07-20T07:00:34;5.30;;;2.70;;
17365;SDS011;8800;50.118;9.900;2023-07-20T07:03:01;5.88;;;2.90;;
17365;SDS011;8800;50.118;9.900;2023-07-20T07:05:27;4.97;;;2.70;;
17365;SDS011;8800;50.118;9.900;2023-07-20T07:07:54;6.85;;;2.58;;
17365;SDS011;8800;50.118;9.900;2023-07-20T07:10:21;6.43;;;2.80;;
17365;SDS011;8800;50.118;9.900;2023-07-20T07:12:49;4.43;;;2.70;;
17365;SDS011;8800;50.118;9.900;2023-07-20T07:15:15;4.38;;;2.72;;
17365;SDS011;8800;50.118;9.900;2023-07-20T07:17:42;5.90;;;2.70;;
17365;SDS011;8800;50.118;9.900;2023-07-20T07:20:10;5.53;;;2.95;;
17365;SDS011;8800;50.118;9.900;2023-07-20T07:22:36;3.47;;;2.53;;
17365;SDS011;8800;50.118;9.900;2023-07-20T07:25:04;4.95;;;2.47;;
17365;SDS011;8800;50.118;9.900;2023-07-20T07:27:30;5.53;;;1.92;;
17365;SDS011;8800;50.118;9.900;2023-07-20T07:29:58;4.88;;;1.80;;
17365;SDS011;8800;50.118;9.900;2023-07-20T07:32:25;3.85;;;2.22;;
17365;SDS011;8800;50.118;9.900;2023-07-20T07:34:53;6.68;;;2.28;;
17365;SDS011;8800;50.118;9.900;2023-07-20T07:37:20;6.70;;;2.70;;
17365;SDS011;8800;50.118;9.900;2023-07-20T07:39:46;4.75;;;2.47;;
17365;SDS011;8800;50.118;9.900;2023-07-20T07:42:13;5.57;;;2.28;;
17365;SDS011;8800;50.118;9.900;2023-07-20T07:44:40;7.05;;;2.50;;
17365;SDS011;8800;50.118;9.900;2023-07-20T07:47:08;4.72;;;2.33;;
17365;SDS011;8800;50.118;9.900;2023-07-20T07:49:35;3.17;;;2.00;;
17365;SDS011;8800;50.118;9.900;2023-07-20T07:52:02;6.07;;;2.25;;
17365;SDS011;8800;50.118;9.900;2023-07-20T07:54:28;7.45;;;2.85;;
17365;SDS011;8800;50.118;9.900;2023-07-20T07:56:55;6.68;;;2.65;;
17365;SDS011;8800;50.118;9.900;2023-07-20T07:59:22;5.20;;;2.10;;
17365;SDS011;8800;50.118;9.900;2023-07-20T08:01:49;6.18;;;2.45;;
17365;SDS011;8800;50.118;9.900;2023-07-20T08:04:17;6.97;;;2.60;;
17365;SDS011;8800;50.118;9.900;2023-07-20T08:06:44;7.90;;;2.35;;
17365;SDS011;8800;50.118;9.900;2023-07-20T08:09:11;7.38;;;2.70;;
17365;SDS011;8800;50.118;9.900;2023-07-20T08:11:38;4.55;;;2.35;;
17365;SDS011;8800;50.118;9.900;2023-07-20T08:14:05;5.60;;;2.13;;
17365;SDS011;8800;50.118;9.900;2023-07-20T08:16:32;3.88;;;2.20;;
17365;SDS011;8800;50.118;9.900;2023-07-20T08:18:59;8.32;;;2.70;;
17365;SDS011;8800;50.118;9.900;2023-07-20T08:21:27;4.80;;;2.20;;
17365;SDS011;8800;50.118;9.900;2023-07-20T08:23:53;9.30;;;2.53;;
17365;SDS011;8800;50.118;9.900;2023-07-20T08:26:19;9.38;;;2.40;;
17365;SDS011;8800;50.118;9.900;2023-07-20T08:28:47;7.50;;;2.75;;
17365;SDS011;8800;50.118;9.900;2023-07-20T08:31:14;5.70;;;2.67;;
17365;SDS011;8800;50.118;9.900;2023-07-20T08:33:40;4.97;;;1.95;;
17365;SDS011;8800;50.118;9.900;2023-07-20T08:36:07;8.40;;;2.40;;
17365;SDS011;8800;50.118;9.900;2023-07-20T08:38:35;5.63;;;2.30;;
17365;SDS011;8800;50.118;9.900;2023-07-20T08:41:01;6.18;;;2.22;;
17365;SDS011;8800;50.118;9.900;2023-07-20T08:43:28;7.25;;;2.40;;
17365;SDS011;8800;50.118;9.900;2023-07-20T08:45:55;7.43;;;2.63;;
17365;SDS011;8800;50.118;9.900;2023-07-20T08:48:22;5.35;;;2.40;;
17365;SDS011;8800;50.118;9.900;2023-07-20T08:50:49;5.45;;;2.28;;
17365;SDS011;8800;50.118;9.900;2023-07-20T08:53:15;6.55;;;2.65;;
17365;SDS011;8800;50.118;9.900;2023-07-20T08:55:44;5.43;;;2.30;;
17365;SDS011;8800;50.118;9.900;2023-07-20T08:58:12;5.47;;;2.50;;
17365;SDS011;8800;50.118;9.900;2023-07-20T09:00:39;6.78;;;2.38;;
17365;SDS011;8800;50.118;9.900;2023-07-20T09:03:07;6.18;;;2.50;;
17365;SDS011;8800;50.118;9.900;2023-07-20T09:05:33;4.47;;;2.03;;
17365;SDS011;8800;50.118;9.900;2023-07-20T09:08:01;6.00;;;2.13;;
17365;SDS011;8800;50.118;9.900;2023-07-20T09:10:29;5.63;;;2.33;;
17365;SDS011;8800;50.118;9.900;2023-07-20T09:12:57;7.95;;;2.13;;
17365;SDS011;8800;50.118;9.900;2023-07-20T09:15:23;3.78;;;2.22;;
17365;SDS011;8800;50.118;9.900;2023-07-20T09:17:53;5.57;;;2.15;;
17365;SDS011;8800;50.118;9.900;2023-07-20T09:20:20;4.93;;;2.40;;
17365;SDS011;8800;50.118;9.900;2023-07-20T09:22:47;6.15;;;2.30;;
17365;SDS011;8800;50.118;9.900;2023-07-20T09:25:15;4.00;;;2.28;;
17365;SDS011;8800;50.118;9.900;2023-07-20T09:27:42;5.13;;;2.25;;
17365;SDS011;8800;50.118;9.900;2023-07-20T09:30:12;3.72;;;2.00;;
17365;SDS011;8800;50.118;9.900;2023-07-20T09:32:40;4.70;;;2.30;;
17365;SDS011;8800;50.118;9.900;2023-07-20T09:35:12;4.97;;;1.83;;
17365;SDS011;8800;50.118;9.900;2023-07-20T09:37:46;4.85;;;1.85;;
17365;SDS011;8800;50.118;9.900;2023-07-20T09:40:14;5.53;;;2.00;;
17365;SDS011;8800;50.118;9.900;2023-07-20T09:42:41;3.58;;;1.75;;
17365;SDS011;8800;50.118;9.900;2023-07-20T09:45:09;4.95;;;1.67;;
17365;SDS011;8800;50.118;9.900;2023-07-20T09:47:37;4.47;;;2.08;;
17365;SDS011;8800;50.118;9.900;2023-07-20T09:50:04;4.60;;;1.95;;
17365;SDS011;8800;50.118;9.900;2023-07-20T09:52:35;3.78;;;1.80;;
17365;SDS011;8800;50.118;9.900;2023-07-20T09:55:02;6.13;;;1.90;;
17365;SDS011;8800;50.118;9.900;2023-07-20T09:57:29;2.80;;;1.83;;
17365;SDS011;8800;50.118;9.900;2023-07-20T09:59:56;1.85;;;1.38;;
17365;SDS011;8800;50.118;9.900;2023-07-20T10:02:25;5.15;;;1.58;;
17365;SDS011;8800;50.118;9.900;2023-07-20T10:04:55;3.78;;;1.50;;
17365;SDS011;8800;50.118;9.900;2023-07-20T10:07:22;3.17;;;1.42;;
17365;SDS011;8800;50.118;9.900;2023-07-20T10:09:50;4.05;;;1.67;;
17365;SDS011;8800;50.118;9.900;2023-07-20T10:12:17;2.60;;;1.63;;
17365;SDS011;8800;50.118;9.900;2023-07-20T10:14:48;4.85;;;1.60;;
17365;SDS011;8800;50.118;9.900;2023-07-20T10:17:17;2.78;;;1.40;;
17365;SDS011;8800;50.118;9.900;2023-07-20T10:19:44;2.65;;;1.33;;
17365;SDS011;8800;50.118;9.900;2023-07-20T10:22:14;3.35;;;1.42;;
17365;SDS011;8800;50.118;9.900;2023-07-20T10:24:44;1.98;;;1.17;;
17365;SDS011;8800;50.118;9.900;2023-07-20T10:27:10;3.38;;;1.40;;
17365;SDS011;8800;50.118;9.900;2023-07-20T10:29:37;4.63;;;1.42;;
17365;SDS011;8800;50.118;9.900;2023-07-20T10:32:04;2.03;;;1.10;;
17365;SDS011;8800;50.118;9.900;2023-07-20T10:34:31;2.15;;;1.23;;
17365;SDS011;8800;50.118;9.900;2023-07-20T10:36:58;1.90;;;1.35;;
17365;SDS011;8800;50.118;9.900;2023-07-20T10:39:27;2.47;;;1.23;;
17365;SDS011;8800;50.118;9.900;2023-07-20T10:42:01;3.13;;;1.30;;
17365;SDS011;8800;50.118;9.900;2023-07-20T10:44:29;3.03;;;1.40;;
17365;SDS011;8800;50.118;9.900;2023-07-20T10:46:59;2.70;;;1.25;;
17365;SDS011;8800;50.118;9.900;2023-07-20T10:49:25;3.75;;;1.35;;
17365;SDS011;8800;50.118;9.900;2023-07-20T10:51:56;5.15;;;1.80;;
17365;SDS011;8800;50.118;9.900;2023-07-20T10:54:36;3.85;;;1.40;;
17365;SDS011;8800;50.118;9.900;2023-07-20T10:57:23;3.30;;;1.90;;
17365;SDS011;8800;50.118;9.900;2023-07-20T10:59:50;4.35;;;1.50;;
17365;SDS011;8800;50.118;9.900;2023-07-20T11:02:17;3.40;;;1.70;;
17365;SDS011;8800;50.118;9.900;2023-07-20T11:04:45;2.97;;;1.65;;
17365;SDS011;8800;50.118;9.900;2023-07-20T11:07:14;3.70;;;1.60;;
17365;SDS011;8800;50.118;9.900;2023-07-20T11:09:42;3.17;;;1.50;;
17365;SDS011;8800;50.118;9.900;2023-07-20T11:12:09;2.53;;;1.50;;
17365;SDS011;8800;50.118;9.900;2023-07-20T11:14:35;1.65;;;1.23;;
17365;SDS011;8800;50.118;9.900;2023-07-20T11:17:10;2.95;;;1.63;;
17365;SDS011;8800;50.118;9.900;2023-07-20T11:19:37;2.88;;;1.30;;
17365;SDS011;8800;50.118;9.900;2023-07-20T11:22:05;2.30;;;1.20;;
17365;SDS011;8800;50.118;9.900;2023-07-20T11:24:32;4.00;;;1.40;;
17365;SDS011;8800;50.118;9.900;2023-07-20T11:27:00;3.58;;;1.65;;
17365;SDS011;8800;50.118;9.900;2023-07-20T11:29:27;3.05;;;1.45;;
17365;SDS011;8800;50.118;9.900;2023-07-20T11:31:53;3.65;;;1.50;;
17365;SDS011;8800;50.118;9.900;2023-07-20T11:34:20;2.58;;;1.40;;
17365;SDS011;8800;50.118;9.900;2023-07-20T11:36:47;3.20;;;1.70;;
17365;SDS011;8800;50.118;9.900;2023-07-20T11:39:14;2.50;;;1.65;;
17365;SDS011;8800;50.118;9.900;2023-07-20T11:41:43;2.67;;;1.35;;
17365;SDS011;8800;50.118;9.900;2023-07-20T11:44:11;2.15;;;1.40;;
17365;SDS011;8800;50.118;9.900;2023-07-20T11:46:40;2.20;;;1.45;;
17365;SDS011;8800;50.118;9.900;2023-07-20T11:49:07;4.03;;;1.48;;
17365;SDS011;8800;50.118;9.900;2023-07-20T11:51:35;4.32;;;1.27;;
17365;SDS011;8800;50.118;9.900;2023-07-20T11:54:02;3.45;;;1.35;;
17365;SDS011;8800;50.118;9.900;2023-07-20T11:56:29;2.58;;;1.45;;
17365;SDS011;8800;50.118;9.900;2023-07-20T11:58:56;1.95;;;1.15;;
17365;SDS011;8800;50.118;9.900;2023-07-20T12:01:26;2.78;;;1.30;;
17365;SDS011;8800;50.118;9.900;2023-07-20T12:03:54;5.30;;;1.40;;
17365;SDS011;8800;50.118;9.900;2023-07-20T12:06:22;2.20;;;1.40;;
17365;SDS011;8800;50.118;9.900;2023-07-20T12:08:48;1.77;;;1.23;;
17365;SDS011;8800;50.118;9.900;2023-07-20T12:11:29;2.90;;;1.50;;
17365;SDS011;8800;50.118;9.900;2023-07-20T12:13:57;2.80;;;1.10;;
17365;SDS011;8800;50.118;9.900;2023-07-20T12:16:26;2.15;;;1.10;;
17365;SDS011;8800;50.118;9.900;2023-07-20T12:19:00;3.15;;;1.10;;
17365;SDS011;8800;50.118;9.900;2023-07-20T12:21:27;3.05;;;1.13;;
17365;SDS011;8800;50.118;9.900;2023-07-20T12:23:55;1.17;;;1.08;;
17365;SDS011;8800;50.118;9.900;2023-07-20T12:26:21;1.80;;;1.20;;
17365;SDS011;8800;50.118;9.900;2023-07-20T12:28:49;2.13;;;1.20;;
17365;SDS011;8800;50.118;9.900;2023-07-20T12:31:15;2.33;;;1.02;;
17365;SDS011;8800;50.118;9.900;2023-07-20T12:33:42;2.55;;;1.30;;
17365;SDS011;8800;50.118;9.900;2023-07-20T12:36:09;3.15;;;1.30;;
17365;SDS011;8800;50.118;9.900;2023-07-20T12:38:36;2.97;;;1.10;;
17365;SDS011;8800;50.118;9.900;2023-07-20T12:41:02;2.30;;;1.25;;
17365;SDS011;8800;50.118;9.900;2023-07-20T12:43:29;2.35;;;1.30;;
17365;SDS011;8800;50.118;9.900;2023-07-20T12:45:57;2.17;;;1.25;;
17365;SDS011;8800;50.118;9.900;2023-07-20T12:48:23;1.88;;;1.08;;
17365;SDS011;8800;50.118;9.900;2023-07-20T12:50:50;3.22;;;1.27;;
17365;SDS011;8800;50.118;9.900;2023-07-20T12:53:18;1.85;;;1.52;;
17365;SDS011;8800;50.118;9.900;2023-07-20T12:55:44;1.25;;;1.05;;
17365;SDS011;8800;50.118;9.900;2023-07-20T12:58:11;2.08;;;1.10;;
17365;SDS011;8800;50.118;9.900;2023-07-20T13:00:38;3.65;;;1.45;;
17365;SDS011;8800;50.118;9.900;2023-07-20T13:03:04;2.28;;;1.30;;
17365;SDS011;8800;50.118;9.900;2023-07-20T13:05:32;6.07;;;1.40;;
17365;SDS011;8800;50.118;9.900;2023-07-20T13:07:58;2.45;;;1.23;;
17365;SDS011;8800;50.118;9.900;2023-07-20T13:10:26;3.00;;;1.25;;
17365;SDS011;8800;50.118;9.900;2023-07-20T13:12:54;2.03;;;1.20;;
17365;SDS011;8800;50.118;9.900;2023-07-20T13:15:21;3.33;;;1.17;;
17365;SDS011;8800;50.118;9.900;2023-07-20T13:17:47;1.85;;;1.15;;
17365;SDS011;8800;50.118;9.900;2023-07-20T13:20:14;2.22;;;1.40;;
17365;SDS011;8800;50.118;9.900;2023-07-20T13:22:40;2.53;;;1.20;;
17365;SDS011;8800;50.118;9.900;2023-07-20T13:25:08;3.35;;;1.30;;
17365;SDS011;8800;50.118;9.900;2023-07-20T13:27:36;2.08;;;1.15;;
17365;SDS011;8800;50.118;9.900;2023-07-20T13:30:03;1.65;;;1.13;;
17365;SDS011;8800;50.118;9.900;2023-07-20T13:32:31;3.35;;;1.50;;
17365;SDS011;8800;50.118;9.900;2023-07-20T13:34:58;1.98;;;1.30;;
17365;SDS011;8800;50.118;9.900;2023-07-20T13:37:25;2.30;;;1.45;;
17365;SDS011;8800;50.118;9.900;2023-07-20T13:39:52;3.53;;;1.25;;
17365;SDS011;8800;50.118;9.900;2023-07-20T13:42:18;2.33;;;1.40;;
17365;SDS011;8800;50.118;9.900;2023-07-20T13:44:48;1.48;;;1.05;;
17365;SDS011;8800;50.118;9.900;2023-07-20T13:47:14;1.50;;;1.17;;
17365;SDS011;8800;50.118;9.900;2023-07-20T13:49:41;3.55;;;1.50;;
17365;SDS011;8800;50.118;9.900;2023-07-20T13:52:08;1.92;;;1.30;;
17365;SDS011;8800;50.118;9.900;2023-07-20T13:54:35;1.95;;;1.10;;
17365;SDS011;8800;50.118;9.900;2023-07-20T13:57:02;2.58;;;1.50;;
17365;SDS011;8800;50.118;9.900;2023-07-20T13:59:30;2.75;;;1.17;;
17365;SDS011;8800;50.118;9.900;2023-07-20T14:01:57;2.50;;;1.40;;
17365;SDS011;8800;50.118;9.900;2023-07-20T14:04:24;1.35;;;1.10;;
17365;SDS011;8800;50.118;9.900;2023-07-20T14:06:50;1.85;;;1.20;;
17365;SDS011;8800;50.118;9.900;2023-07-20T14:09:17;2.00;;;1.15;;
17365;SDS011;8800;50.118;9.900;2023-07-20T14:11:44;4.35;;;1.40;;
17365;SDS011;8800;50.118;9.900;2023-07-20T14:14:10;2.35;;;1.50;;
17365;SDS011;8800;50.118;9.900;2023-07-20T14:16:37;2.17;;;1.23;;
17365;SDS011;8800;50.118;9.900;2023-07-20T14:19:05;2.08;;;1.20;;
17365;SDS011;8800;50.118;9.900;2023-07-20T14:21:32;3.78;;;1.27;;
17365;SDS011;8800;50.118;9.900;2023-07-20T14:23:59;1.23;;;0.90;;
17365;SDS011;8800;50.118;9.900;2023-07-20T14:26:27;2.75;;;1.00;;
17365;SDS011;8800;50.118;9.900;2023-07-20T14:28:53;1.48;;;1.00;;
17365;SDS011;8800;50.118;9.900;2023-07-20T14:31:20;1.90;;;1.00;;
17365;SDS011;8800;50.118;9.900;2023-07-20T14:33:47;1.65;;;1.10;;
17365;SDS011;8800;50.118;9.900;2023-07-20T14:36:15;1.52;;;1.00;;
17365;SDS011;8800;50.118;9.900;2023-07-20T14:38:42;3.35;;;1.33;;
17365;SDS011;8800;50.118;9.900;2023-07-20T14:41:08;2.65;;;1.20;;
17365;SDS011;8800;50.118;9.900;2023-07-20T14:43:34;1.88;;;1.20;;
17365;SDS011;8800;50.118;9.900;2023-07-20T14:46:01;5.05;;;1.30;;
17365;SDS011;8800;50.118;9.900;2023-07-20T14:48:27;2.42;;;1.45;;
17365;SDS011;8800;50.118;9.900;2023-07-20T14:50:54;2.17;;;1.50;;
17365;SDS011;8800;50.118;9.900;2023-07-20T14:53:21;2.85;;;1.35;;
17365;SDS011;8800;50.118;9.900;2023-07-20T14:55:48;3.42;;;1.13;;
17365;SDS011;8800;50.118;9.900;2023-07-20T14:58:14;3.42;;;1.63;;
17365;SDS011;8800;50.118;9.900;2023-07-20T15:00:41;2.70;;;1.25;;
17365;SDS011;8800;50.118;9.900;2023-07-20T15:03:07;1.35;;;1.10;;
17365;SDS011;8800;50.118;9.900;2023-07-20T15:05:34;2.40;;;1.30;;
17365;SDS011;8800;50.118;9.900;2023-07-20T15:08:02;2.42;;;1.33;;